Time;durP1;ratioP1;P1;durP2;ratioP2;P2;SDS_P1;SDS_P2;PMS_P1;PMS_P2;Temp;Humidity;BMP_temperature;BMP_pressure;BME280_temperature;BME280_humidity;BME280_pressure;Samples;Min_cycle;Max_cycle;Signal;HPM_P1;HPM_P2
2022/04/12 00:01:16;;;;;;;8.18;1.63;;;20.30;99.90;;;;;;5089879;28;20269;-76
2022/04/12 00:03:47;;;;;;;9.07;1.63;;;20.30;99.90;;;;;;5094558;28;20189;-79
2022/04/12 00:06:17;;;;;;;8.20;1.45;;;20.30;99.90;;;;;;5093382;28;20246;-76
2022/04/12 00:08:48;;;;;;;8.65;1.50;;;20.20;99.90;;;;;;5090379;28;20191;-77
2022/04/12 00:11:18;;;;;;;10.77;1.77;;;20.10;99.90;;;;;;5092640;28;20226;-77
2022/04/12 00:13:51;;;;;;;6.32;1.42;;;20.10;99.90;;;;;;5091538;28;20180;-77
2022/04/12 00:16:21;;;;;;;10.50;1.48;;;20.10;99.90;;;;;;5094326;28;20188;-77
2022/04/12 00:19:03;;;;;;;10.75;1.60;;;20.10;99.90;;;;;;5103601;28;20187;-77
2022/04/12 00:21:35;;;;;;;7.82;1.55;;;20.10;99.90;;;;;;5094789;28;20330;-77
2022/04/12 00:24:07;;;;;;;8.00;1.50;;;20.10;99.90;;;;;;5097135;27;20271;-76
2022/04/12 00:26:38;;;;;;;7.50;1.88;;;20.10;99.90;;;;;;5093623;28;20188;-77
2022/04/12 00:29:10;;;;;;;7.97;1.50;;;20.20;99.90;;;;;;5091903;28;20665;-77
2022/04/12 00:31:43;;;;;;;6.50;1.42;;;20.20;99.90;;;;;;5098106;28;20184;-77
2022/04/12 00:34:14;;;;;;;8.52;1.95;;;20.30;99.90;;;;;;5089598;28;20587;-77
2022/04/12 00:36:44;;;;;;;8.38;1.58;;;20.30;99.90;;;;;;5093634;28;20239;-77
2022/04/12 00:39:15;;;;;;;9.05;2.08;;;20.40;99.90;;;;;;5093979;28;20184;-77
2022/04/12 00:41:45;;;;;;;8.10;1.70;;;20.40;99.90;;;;;;5093584;28;20262;-77
2022/04/12 00:44:18;;;;;;;9.75;1.42;;;20.40;99.90;;;;;;5091849;28;20189;-77
2022/04/12 00:46:48;;;;;;;7.70;1.80;;;20.40;99.90;;;;;;5094233;28;20693;-77
2022/04/12 00:49:20;;;;;;;6.32;1.52;;;20.40;99.90;;;;;;5092094;28;20224;-78
2022/04/12 00:51:51;;;;;;;7.55;1.35;;;20.50;99.90;;;;;;5093882;28;20234;-77
2022/04/12 00:54:24;;;;;;;8.25;1.58;;;20.50;99.90;;;;;;5093591;28;20245;-77
2022/04/12 00:56:55;;;;;;;10.82;1.70;;;20.60;99.90;;;;;;5094431;28;20583;-77
2022/04/12 00:59:29;;;;;;;8.65;1.60;;;20.70;99.90;;;;;;5092590;28;20248;-77
2022/04/12 01:02:00;;;;;;;8.70;1.23;;;20.80;99.90;;;;;;5093108;28;20627;-77
2022/04/12 01:04:32;;;;;;;7.93;1.20;;;21.00;99.90;;;;;;5090476;28;20192;-77
2022/04/12 01:07:04;;;;;;;5.35;1.48;;;21.10;99.90;;;;;;5096190;28;20191;-77
2022/04/12 01:09:36;;;;;;;4.47;1.55;;;21.10;99.90;;;;;;5091570;28;20192;-77
2022/04/12 01:12:09;;;;;;;9.20;1.50;;;21.30;99.90;;;;;;5088837;28;20680;-77
2022/04/12 01:14:43;;;;;;;7.68;1.55;;;21.50;99.90;;;;;;5093648;28;20240;-77
2022/04/12 01:17:15;;;;;;;8.55;1.80;;;21.80;99.90;;;;;;5088673;28;20195;-76
2022/04/12 01:19:47;;;;;;;11.75;3.53;;;22.00;99.90;;;;;;5092162;28;20632;-77
2022/04/12 01:22:25;;;;;;;6.07;2.50;;;22.20;99.90;;;;;;5088600;28;20204;-78
2022/04/12 01:24:57;;;;;;;9.50;1.70;;;22.40;99.90;;;;;;5090276;28;20184;-78
2022/04/12 01:27:28;;;;;;;7.72;1.60;;;22.60;99.90;;;;;;5084270;28;20188;-77
2022/04/12 01:29:59;;;;;;;16.40;2.70;;;22.60;99.90;;;;;;5092223;28;20279;-78
2022/04/12 01:32:29;;;;;;;6.15;1.63;;;22.70;99.90;;;;;;5092698;28;20214;-77
2022/04/12 01:35:00;;;;;;;5.85;2.00;;;22.50;99.90;;;;;;5092411;28;20188;-78
2022/04/12 01:37:31;;;;;;;8.18;1.73;;;22.30;99.90;;;;;;5094980;28;20200;-78
2022/04/12 01:40:03;;;;;;;11.65;2.50;;;22.20;99.90;;;;;;5094261;28;20551;-77
2022/04/12 01:42:34;;;;;;;6.45;1.33;;;22.10;99.90;;;;;;5080923;28;20590;-77
2022/04/12 01:45:05;;;;;;;6.22;1.40;;;21.90;99.90;;;;;;5082526;28;20197;-76
2022/04/12 01:47:36;;;;;;;8.85;1.52;;;21.70;99.90;;;;;;5078314;28;20208;-76
2022/04/12 01:50:07;;;;;;;8.18;1.40;;;21.70;99.90;;;;;;5083881;28;20694;-77
2022/04/12 01:52:39;;;;;;;6.95;1.25;;;21.60;99.90;;;;;;5100486;22;20212;-80
2022/04/12 01:55:14;;;;;;;5.22;1.38;;;21.40;99.90;;;;;;5059604;28;20201;-71
2022/04/12 01:57:45;;;;;;;7.78;1.40;;;21.30;99.90;;;;;;5064632;28;20195;-69
2022/04/12 02:00:16;;;;;;;8.52;1.65;;;21.20;99.90;;;;;;5065540;28;20208;-72
2022/04/12 02:02:47;;;;;;;6.57;1.63;;;21.40;99.90;;;;;;5064397;28;20219;-80
2022/04/12 02:05:17;;;;;;;5.80;1.27;;;21.60;99.90;;;;;;5063980;28;20204;-76
2022/04/12 02:07:48;;;;;;;6.70;1.45;;;21.90;99.90;;;;;;5067000;28;20721;-71
2022/04/12 02:10:22;;;;;;;7.72;1.67;;;22.10;99.90;;;;;;5066391;28;20598;-75
2022/04/12 02:12:52;;;;;;;5.60;1.30;;;22.00;99.90;;;;;;5070052;28;20201;-73
2022/04/12 02:15:23;;;;;;;8.88;1.45;;;21.90;99.90;;;;;;5064372;28;20200;-71
2022/04/12 02:17:54;;;;;;;5.35;1.30;;;21.90;99.90;;;;;;5070586;28;20201;-72
2022/04/12 02:20:24;;;;;;;7.28;1.40;;;22.00;99.90;;;;;;5063689;28;20207;-71
2022/04/12 02:22:55;;;;;;;10.35;1.40;;;22.10;99.90;;;;;;5061291;28;20267;-72
2022/04/12 02:25:27;;;;;;;7.20;1.30;;;22.30;99.90;;;;;;5068697;28;20303;-77
2022/04/12 02:27:58;;;;;;;10.57;1.58;;;22.30;99.90;;;;;;5069134;28;20250;-74
2022/04/12 02:30:29;;;;;;;4.55;1.50;;;22.30;99.90;;;;;;5066379;28;20205;-77
2022/04/12 02:32:59;;;;;;;7.72;1.33;;;22.30;99.90;;;;;;5066885;28;20200;-72
2022/04/12 02:35:30;;;;;;;6.85;1.17;;;22.40;99.90;;;;;;5066791;28;20216;-73
2022/04/12 02:38:00;;;;;;;7.93;1.45;;;22.50;99.90;;;;;;5071458;28;20207;-73
2022/04/12 02:40:33;;;;;;;5.45;1.10;;;22.50;99.90;;;;;;5064525;28;20246;-75
2022/04/12 02:43:04;;;;;;;7.50;1.38;;;22.50;99.90;;;;;;5066798;28;20217;-72
2022/04/12 02:45:34;;;;;;;6.45;1.50;;;22.60;99.90;;;;;;5067501;28;20706;-74
2022/04/12 02:48:06;;;;;;;9.05;1.50;;;22.70;99.90;;;;;;5069061;28;20254;-75
2022/04/12 02:50:36;;;;;;;7.70;1.40;;;22.70;99.90;;;;;;5074959;28;20189;-74
2022/04/12 02:53:07;;;;;;;7.70;1.20;;;22.60;99.90;;;;;;5060088;28;20252;-76
2022/04/12 02:55:39;;;;;;;9.77;1.55;;;22.60;99.90;;;;;;5050287;28;20209;-79
2022/04/12 02:58:10;;;;;;;7.30;1.38;;;22.40;99.90;;;;;;5052231;28;20657;-80
2022/04/12 03:00:41;;;;;;;6.82;1.33;;;22.40;99.90;;;;;;5052583;28;20189;-79
2022/04/12 03:03:12;;;;;;;7.25;1.40;;;22.30;99.90;;;;;;5052246;28;20230;-68
2022/04/12 03:05:42;;;;;;;5.45;1.10;;;22.10;99.90;;;;;;5052851;28;20181;-78
2022/04/12 03:08:13;;;;;;;8.75;1.98;;;22.00;99.90;;;;;;5050121;28;20186;-76
2022/04/12 03:10:46;;;;;;;5.97;1.50;;;22.00;99.90;;;;;;5049865;28;20182;-82
2022/04/12 03:13:16;;;;;;;7.22;1.70;;;22.00;99.90;;;;;;5053749;28;20265;-78
2022/04/12 03:15:47;;;;;;;7.10;1.60;;;21.90;99.90;;;;;;5052737;28;20194;-81
2022/04/12 03:18:18;;;;;;;7.82;1.70;;;22.00;99.90;;;;;;5054578;28;20193;-80
2022/04/12 03:20:51;;;;;;;10.52;1.80;;;22.10;99.90;;;;;;5049498;28;20297;-81
2022/04/12 03:23:22;;;;;;;6.07;1.42;;;22.20;99.90;;;;;;5051592;28;20703;-80
2022/04/12 03:25:54;;;;;;;6.10;1.48;;;22.20;99.90;;;;;;5047757;28;20182;-71
2022/04/12 03:28:25;;;;;;;8.63;1.73;;;22.10;99.90;;;;;;5051564;28;20196;-78
2022/04/12 03:30:56;;;;;;;7.45;1.80;;;22.10;99.90;;;;;;5053129;28;20239;-73
2022/04/12 03:33:26;;;;;;;8.85;1.50;;;22.10;99.90;;;;;;5054309;28;20189;-69
2022/04/12 03:35:57;;;;;;;6.93;1.65;;;22.00;99.90;;;;;;5046800;28;20186;-79
2022/04/12 03:38:27;;;;;;;9.07;1.63;;;21.90;99.90;;;;;;5054056;28;20568;-78
2022/04/12 03:41:00;;;;;;;9.07;1.80;;;21.90;99.90;;;;;;5048266;28;20190;-81
2022/04/12 03:43:31;;;;;;;5.88;1.75;;;22.00;99.90;;;;;;5054189;28;20695;-78
2022/04/12 03:46:01;;;;;;;6.28;1.73;;;22.00;99.90;;;;;;5053866;28;20194;-77
2022/04/12 03:48:32;;;;;;;8.60;1.92;;;21.90;99.90;;;;;;5054904;28;20255;-80
2022/04/12 03:51:02;;;;;;;7.70;1.60;;;22.00;99.90;;;;;;5047168;28;20182;-77
2022/04/12 03:53:33;;;;;;;10.25;2.00;;;22.00;99.90;;;;;;5051630;28;20696;-75
2022/04/12 03:56:07;;;;;;;8.10;2.25;;;22.10;99.90;;;;;;5052533;28;20582;-79
2022/04/12 03:58:39;;;;;;;8.38;2.00;;;22.10;99.90;;;;;;5053509;28;20243;-75
2022/04/12 04:01:10;;;;;;;7.93;1.70;;;22.10;99.90;;;;;;5050778;28;20198;-79
2022/04/12 04:03:41;;;;;;;5.57;1.65;;;22.20;99.90;;;;;;5050668;28;20679;-81
2022/04/12 04:06:12;;;;;;;6.22;1.80;;;22.10;99.90;;;;;;5051662;28;20243;-75
2022/04/12 04:08:42;;;;;;;9.35;2.13;;;22.00;99.90;;;;;;5052165;28;20524;-82
2022/04/12 04:11:15;;;;;;;7.20;2.00;;;22.00;99.90;;;;;;5052870;28;20193;-84
2022/04/12 04:13:46;;;;;;;15.45;2.00;;;21.90;99.90;;;;;;5051990;28;20197;-80
2022/04/12 04:16:16;;;;;;;9.88;2.38;;;21.80;99.90;;;;;;5054480;28;20190;-80
2022/04/12 04:18:47;;;;;;;8.00;1.88;;;21.80;99.90;;;;;;5054790;28;20182;-80
2022/04/12 04:21:17;;;;;;;6.72;2.20;;;21.80;99.90;;;;;;5052390;28;20232;-81
2022/04/12 04:23:48;;;;;;;10.38;2.33;;;21.70;99.90;;;;;;5052092;28;20217;-77
2022/04/12 04:26:21;;;;;;;9.95;2.17;;;21.70;99.90;;;;;;5051759;28;20248;-79
2022/04/12 04:28:51;;;;;;;7.18;2.20;;;21.70;99.90;;;;;;5053093;28;20189;-82
2022/04/12 04:31:22;;;;;;;8.45;2.33;;;21.80;99.90;;;;;;5053969;28;20194;-80
2022/04/12 04:33:52;;;;;;;7.97;2.00;;;21.80;99.90;;;;;;5052480;28;20244;-78
2022/04/12 04:36:23;;;;;;;7.68;2.08;;;21.80;99.90;;;;;;5053175;28;20251;-80
2022/04/12 04:38:54;;;;;;;7.95;2.30;;;21.70;99.90;;;;;;5052229;28;20194;-80
2022/04/12 04:41:27;;;;;;;6.00;2.28;;;21.70;99.90;;;;;;5051217;28;20185;-81
2022/04/12 04:43:58;;;;;;;7.03;2.13;;;21.70;99.90;;;;;;5052594;28;20214;-79
2022/04/12 04:46:29;;;;;;;7.65;2.10;;;21.70;99.90;;;;;;5051571;28;20185;-77
2022/04/12 04:48:59;;;;;;;6.72;2.03;;;21.60;99.90;;;;;;5049633;28;20259;-77
2022/04/12 04:51:30;;;;;;;6.57;2.45;;;21.50;99.90;;;;;;5049950;28;20239;-75
2022/04/12 04:54:01;;;;;;;6.82;2.53;;;21.40;99.90;;;;;;5050181;28;20232;-79
2022/04/12 04:56:33;;;;;;;9.40;2.40;;;21.40;99.90;;;;;;5051834;28;20190;-81
2022/04/12 04:59:04;;;;;;;7.72;2.20;;;21.30;99.90;;;;;;5052877;28;20194;-80
2022/04/12 05:01:35;;;;;;;7.60;2.85;;;21.20;99.90;;;;;;5051370;28;20251;-70
2022/04/12 05:04:05;;;;;;;7.60;2.15;;;21.20;99.90;;;;;;5049684;28;20603;-81
2022/04/12 05:06:36;;;;;;;11.05;2.50;;;21.10;99.90;;;;;;5051953;28;20781;-83
2022/04/12 05:09:06;;;;;;;11.43;2.55;;;21.10;99.90;;;;;;5052055;28;20196;-80
2022/04/12 05:11:39;;;;;;;8.63;2.47;;;21.10;99.90;;;;;;5051736;28;20240;-76
2022/04/12 05:14:10;;;;;;;14.10;2.50;;;21.10;99.90;;;;;;5050963;28;20649;-75
2022/04/12 05:16:40;;;;;;;5.07;2.13;;;21.00;99.90;;;;;;5051885;28;20239;-78
2022/04/12 05:19:11;;;;;;;7.85;2.42;;;20.90;99.90;;;;;;5051106;28;20641;-80
2022/04/12 05:21:42;;;;;;;6.82;2.50;;;20.90;99.90;;;;;;5049740;28;20185;-75
2022/04/12 05:24:12;;;;;;;6.45;2.35;;;20.80;99.90;;;;;;5051306;28;20217;-82
2022/04/12 05:26:45;;;;;;;11.45;2.55;;;20.80;99.90;;;;;;5052256;28;20244;-74
2022/04/12 05:29:15;;;;;;;6.43;2.47;;;20.70;99.90;;;;;;5049711;28;20197;-71
2022/04/12 05:31:46;;;;;;;8.65;2.70;;;20.70;99.90;;;;;;5038709;28;20228;-75
2022/04/12 05:34:16;;;;;;;7.40;2.05;;;20.70;99.90;;;;;;5049329;28;20270;-79
2022/04/12 05:36:47;;;;;;;7.72;2.60;;;20.70;99.90;;;;;;5052378;28;20197;-79
2022/04/12 05:39:18;;;;;;;10.02;2.70;;;20.70;99.90;;;;;;5051222;28;20193;-79
2022/04/12 05:41:50;;;;;;;9.63;2.50;;;20.80;99.90;;;;;;5050647;28;20209;-84
2022/04/12 05:44:21;;;;;;;6.63;2.85;;;20.80;99.90;;;;;;5050244;28;20213;-80
2022/04/12 05:46:51;;;;;;;11.73;2.60;;;20.80;99.90;;;;;;5052689;28;20186;-79
2022/04/12 05:49:22;;;;;;;5.63;2.10;;;20.70;99.90;;;;;;5051688;28;20193;-71
2022/04/12 05:51:53;;;;;;;9.48;2.45;;;20.70;99.90;;;;;;5050527;28;20300;-72
2022/04/12 05:54:24;;;;;;;5.57;2.22;;;20.60;99.90;;;;;;5050000;28;20278;-79
2022/04/12 05:56:56;;;;;;;9.07;2.67;;;20.60;99.90;;;;;;5052549;28;20707;-81
2022/04/12 05:59:27;;;;;;;5.50;2.13;;;20.60;99.90;;;;;;5051646;28;20244;-81
2022/04/12 06:01:57;;;;;;;7.68;2.63;;;20.50;99.90;;;;;;5052259;28;20637;-82
2022/04/12 06:04:28;;;;;;;7.75;2.47;;;20.50;99.90;;;;;;5049653;28;20224;-72
2022/04/12 06:06:59;;;;;;;6.65;2.35;;;20.50;99.90;;;;;;5051507;28;20182;-81
2022/04/12 06:09:29;;;;;;;7.43;2.30;;;20.50;99.90;;;;;;5051999;28;20190;-80
2022/04/12 06:12:02;;;;;;;7.60;2.28;;;20.50;99.90;;;;;;5045786;28;20190;-82
2022/04/12 06:14:32;;;;;;;5.22;2.08;;;20.50;99.90;;;;;;5052415;28;20190;-79
2022/04/12 06:17:03;;;;;;;6.60;2.40;;;20.50;99.90;;;;;;5052395;28;20189;-82
2022/04/12 06:19:33;;;;;;;10.57;2.45;;;20.40;99.90;;;;;;5051508;28;20213;-84
2022/04/12 06:22:04;;;;;;;7.18;2.60;;;20.40;99.90;;;;;;5052354;28;20189;-72
2022/04/12 06:24:35;;;;;;;8.15;2.28;;;20.40;99.90;;;;;;5051582;28;20251;-82
2022/04/12 06:27:08;;;;;;;5.32;2.30;;;20.40;99.90;;;;;;5051845;28;20247;-80
2022/04/12 06:29:39;;;;;;;9.18;2.35;;;20.30;99.90;;;;;;5049908;28;20190;-80
2022/04/12 06:32:10;;;;;;;9.30;2.58;;;20.40;99.90;;;;;;5051728;28;20285;-80
2022/04/12 06:34:41;;;;;;;7.53;2.58;;;20.30;99.90;;;;;;5049404;28;20194;-70
2022/04/12 06:37:11;;;;;;;6.85;2.50;;;20.30;99.90;;;;;;5051768;28;20196;-71
2022/04/12 06:39:42;;;;;;;6.57;2.90;;;20.20;99.90;;;;;;5051089;28;20597;-79
2022/04/12 06:42:14;;;;;;;8.63;2.42;;;20.20;99.90;;;;;;5052094;28;20268;-77
2022/04/12 06:44:45;;;;;;;9.88;2.42;;;20.10;99.90;;;;;;5051877;28;20213;-82
2022/04/12 06:47:17;;;;;;;5.88;2.25;;;20.10;99.90;;;;;;5052441;28;20194;-80
2022/04/12 06:49:49;;;;;;;8.20;2.17;;;20.20;99.90;;;;;;5052202;28;20195;-80
2022/04/12 06:52:21;;;;;;;8.70;2.60;;;20.20;99.90;;;;;;5050589;28;20221;-80
2022/04/12 06:54:52;;;;;;;7.82;2.42;;;20.20;99.90;;;;;;5052055;28;20202;-81
2022/04/12 06:57:25;;;;;;;7.15;2.42;;;20.20;99.90;;;;;;5052268;28;20205;-80
2022/04/12 06:59:55;;;;;;;5.57;2.25;;;20.20;99.90;;;;;;5052039;28;20185;-80
2022/04/12 07:02:26;;;;;;;6.18;2.75;;;20.20;99.90;;;;;;5051642;28;20193;-80
2022/04/12 07:04:57;;;;;;;5.38;2.70;;;20.10;99.90;;;;;;5050757;28;20217;-79
2022/04/12 07:07:28;;;;;;;5.35;2.20;;;20.10;99.90;;;;;;5052003;28;20190;-79
2022/04/12 07:09:59;;;;;;;12.50;2.45;;;20.10;99.90;;;;;;5052426;28;20189;-78
2022/04/12 07:12:32;;;;;;;10.27;2.78;;;20.10;99.90;;;;;;5051940;28;20596;-81
2022/04/12 07:15:03;;;;;;;6.72;2.38;;;20.10;99.90;;;;;;5051451;28;20190;-84
2022/04/12 07:17:33;;;;;;;6.28;2.35;;;20.10;99.90;;;;;;5051539;28;20562;-80
2022/04/12 07:20:04;;;;;;;7.93;2.45;;;20.00;99.90;;;;;;5053265;28;20193;-80
2022/04/12 07:22:35;;;;;;;10.60;2.85;;;20.00;99.90;;;;;;5055115;28;20725;-78
2022/04/12 07:25:05;;;;;;;8.23;2.50;;;20.00;99.90;;;;;;5055043;28;20205;-71
2022/04/12 07:27:41;;;;;;;6.50;2.40;;;20.00;99.90;;;;;;5055513;28;20190;-77
2022/04/12 07:30:12;;;;;;;8.90;2.17;;;20.00;99.90;;;;;;5055263;28;20193;-70
2022/04/12 07:32:43;;;;;;;10.35;2.70;;;20.10;99.90;;;;;;5055385;28;20189;-80
2022/04/12 07:35:14;;;;;;;8.25;2.20;;;20.10;99.90;;;;;;5055186;28;20186;-80
2022/04/12 07:37:46;;;;;;;9.70;2.28;;;20.00;99.90;;;;;;5054977;28;20244;-73
2022/04/12 07:40:17;;;;;;;8.57;2.45;;;20.00;99.90;;;;;;5054908;28;20201;-77
2022/04/12 07:42:49;;;;;;;9.00;2.42;;;20.00;99.90;;;;;;5049705;28;20189;-79
2022/04/12 07:45:20;;;;;;;5.88;2.53;;;20.00;99.90;;;;;;5046716;28;20228;-76
2022/04/12 07:47:51;;;;;;;8.95;2.60;;;20.00;99.90;;;;;;5054644;28;20668;-74
2022/04/12 07:50:21;;;;;;;9.98;2.70;;;20.00;99.90;;;;;;5073514;22;21123;-77
2022/04/12 07:52:52;;;;;;;7.07;2.25;;;19.90;99.90;;;;;;5048764;28;20198;-78
2022/04/12 07:55:23;;;;;;;8.80;2.50;;;19.90;99.90;;;;;;5049301;28;20198;-78
2022/04/12 07:57:55;;;;;;;7.70;2.38;;;19.90;99.90;;;;;;5050743;28;20198;-79
2022/04/12 08:00:26;;;;;;;7.50;2.55;;;19.90;99.90;;;;;;5048319;28;20204;-78
2022/04/12 08:02:57;;;;;;;7.30;2.45;;;19.90;99.90;;;;;;5049726;28;20239;-78
2022/04/12 08:05:28;;;;;;;6.47;2.15;;;19.90;99.90;;;;;;5045301;28;20231;-78
2022/04/12 08:07:59;;;;;;;7.07;2.40;;;19.80;99.90;;;;;;5046771;28;20194;-78
2022/04/12 08:10:30;;;;;;;4.95;2.00;;;19.80;99.90;;;;;;5049499;28;20186;-77
2022/04/12 08:13:02;;;;;;;6.43;2.13;;;19.80;99.90;;;;;;5037322;28;20645;-79
2022/04/12 08:15:33;;;;;;;8.30;2.53;;;19.80;99.90;;;;;;5043332;28;20662;-79
2022/04/12 08:18:06;;;;;;;6.38;2.28;;;19.80;99.90;;;;;;5045638;28;20528;-78
2022/04/12 08:20:37;;;;;;;9.82;2.40;;;19.80;99.90;;;;;;5047006;28;20264;-79
2022/04/12 08:23:18;;;;;;;9.73;2.70;;;19.80;99.90;;;;;;5044244;28;20217;-79
2022/04/12 08:26:13;;;;;;;8.63;2.25;;;19.80;99.90;;;;;;5045114;28;20204;-79
2022/04/12 08:28:46;;;;;;;6.32;2.67;;;19.80;99.90;;;;;;5046430;28;20197;-79
2022/04/12 08:31:17;;;;;;;6.43;2.42;;;19.80;99.90;;;;;;5044646;28;20622;-78
2022/04/12 08:33:47;;;;;;;10.23;2.60;;;19.80;99.90;;;;;;5047573;28;20191;-78
2022/04/12 08:36:21;;;;;;;6.80;2.20;;;19.80;99.90;;;;;;5044708;28;20201;-78
2022/04/12 08:39:17;;;;;;;8.10;2.42;;;19.80;99.90;;;;;;5041423;28;20194;-78
2022/04/12 08:41:59;;;;;;;9.95;2.38;;;19.70;99.90;;;;;;5046291;28;20186;-79
2022/04/12 08:45:08;;;;;;;5.30;2.40;;;19.80;99.90;;;;;;5046358;28;20217;-79
2022/04/12 08:47:39;;;;;;;6.97;2.47;;;19.70;99.90;;;;;;5046136;28;20194;-80
2022/04/12 08:50:23;;;;;;;9.20;2.72;;;19.70;99.90;;;;;;5045311;28;20293;-78
2022/04/12 08:53:06;;;;;;;9.18;2.30;;;19.70;99.90;;;;;;5034293;28;20191;-81
2022/04/12 08:55:53;;;;;;;12.25;2.30;;;19.70;99.90;;;;;;5038782;28;20575;-78
2022/04/12 08:58:39;;;;;;;7.65;1.98;;;19.70;99.90;;;;;;5039087;28;20261;-78
2022/04/12 09:01:31;;;;;;;4.95;1.90;;;19.70;99.90;;;;;;5025737;28;20277;-78
2022/04/12 09:04:08;;;;;;;8.88;2.30;;;19.70;99.90;;;;;;5041144;28;20319;-79
2022/04/12 09:06:49;;;;;;;5.32;2.03;;;19.70;99.90;;;;;;5026734;28;20251;-79
2022/04/12 09:09:21;;;;;;;10.25;2.78;;;19.70;99.90;;;;;;5024722;28;20310;-77
2022/04/12 09:12:02;;;;;;;7.72;2.20;;;19.70;99.90;;;;;;5037322;28;20190;-78
2022/04/12 09:14:41;;;;;;;9.23;2.25;;;19.70;99.90;;;;;;5037756;28;20737;-78
2022/04/12 09:17:16;;;;;;;6.82;2.13;;;19.70;99.90;;;;;;5038216;28;20240;-77
2022/04/12 09:19:48;;;;;;;9.07;2.03;;;19.70;99.90;;;;;;5022587;28;20187;-78
2022/04/12 09:22:20;;;;;;;8.68;2.05;;;19.70;99.90;;;;;;5022787;28;20194;-78
2022/04/12 09:24:52;;;;;;;8.75;2.08;;;19.70;99.90;;;;;;5025806;28;20693;-77
2022/04/12 09:27:23;;;;;;;8.93;2.15;;;19.70;99.90;;;;;;5026935;28;20218;-80
2022/04/12 09:29:55;;;;;;;8.18;2.40;;;19.70;99.90;;;;;;5017905;28;20197;-78
2022/04/12 09:32:29;;;;;;;8.93;1.90;;;19.70;99.90;;;;;;5032861;28;20220;-78
2022/04/12 09:35:00;;;;;;;5.93;1.92;;;19.70;99.90;;;;;;5029259;28;20186;-80
2022/04/12 09:37:32;;;;;;;6.55;2.17;;;19.70;99.90;;;;;;5016615;28;20195;-78
2022/04/12 09:40:11;;;;;;;5.03;1.90;;;19.70;99.90;;;;;;5029409;28;20194;-78
2022/04/12 09:42:50;;;;;;;6.43;1.95;;;19.70;99.90;;;;;;5018055;28;20214;-77
2022/04/12 09:45:22;;;;;;;4.90;1.75;;;19.70;99.90;;;;;;5023970;28;20293;-76
2022/04/12 09:47:56;;;;;;;7.63;2.20;;;19.70;99.90;;;;;;5027267;28;20194;-76
2022/04/12 09:50:28;;;;;;;9.52;2.13;;;19.70;99.90;;;;;;5027435;28;20221;-77
2022/04/12 09:53:00;;;;;;;5.63;1.70;;;19.70;99.90;;;;;;5034630;28;20323;-75
2022/04/12 09:55:38;;;;;;;5.32;1.70;;;19.80;99.90;;;;;;5029306;28;20188;-75
2022/04/12 09:58:10;;;;;;;4.78;1.90;;;19.70;99.90;;;;;;5028573;28;20242;-77
2022/04/12 10:00:41;;;;;;;6.93;1.90;;;19.70;99.90;;;;;;5029727;28;20191;-76
2022/04/12 10:03:15;;;;;;;7.28;1.90;;;19.70;99.90;;;;;;5027834;28;20197;-76
2022/04/12 10:05:47;;;;;;;8.02;2.03;;;19.70;99.90;;;;;;5022088;28;20216;-78
2022/04/12 10:08:22;;;;;;;9.15;2.67;;;19.70;99.90;;;;;;5021031;28;20187;-78
2022/04/12 10:10:54;;;;;;;8.73;2.05;;;19.70;99.90;;;;;;5036005;28;20562;-76
2022/04/12 10:13:27;;;;;;;5.80;1.90;;;19.70;99.90;;;;;;5036397;28;20190;-78
2022/04/12 10:15:59;;;;;;;8.18;2.20;;;19.70;99.90;;;;;;5034955;28;20278;-77
2022/04/12 10:18:31;;;;;;;11.52;2.22;;;19.70;99.90;;;;;;5031331;28;20186;-76
2022/04/12 10:21:02;;;;;;;8.15;2.03;;;19.70;99.90;;;;;;5020016;28;20270;-76
2022/04/12 10:23:34;;;;;;;6.65;2.03;;;19.70;99.90;;;;;;5039810;28;20182;-78
2022/04/12 10:26:06;;;;;;;6.00;2.15;;;19.70;99.90;;;;;;5022497;28;20704;-77
2022/04/12 10:28:37;;;;;;;9.70;2.05;;;19.70;99.90;;;;;;5035346;28;20599;-77
2022/04/12 10:31:26;;;;;;;4.57;1.80;;;19.70;99.90;;;;;;5033523;28;20198;-78
2022/04/12 10:34:11;;;;;;;9.65;1.60;;;19.70;99.90;;;;;;5033966;28;20280;-76
2022/04/12 10:37:09;;;;;;;5.50;1.50;;;19.70;99.90;;;;;;5016774;28;20187;-77
2022/04/12 10:39:47;;;;;;;4.68;1.48;;;19.70;99.90;;;;;;5018043;28;20190;-75
2022/04/12 10:42:22;;;;;;;8.82;1.85;;;19.70;99.90;;;;;;5016988;28;20198;-76
2022/04/12 10:44:56;;;;;;;5.65;1.90;;;19.70;99.90;;;;;;5024511;28;20206;-76
2022/04/12 10:47:29;;;;;;;5.50;1.50;;;19.70;99.90;;;;;;5034873;28;20234;-76
2022/04/12 10:50:05;;;;;;;5.95;1.48;;;19.70;99.90;;;;;;5029642;28;20190;-77
2022/04/12 10:52:37;;;;;;;4.65;1.85;;;19.70;99.90;;;;;;5025824;28;20234;-76
2022/04/12 10:55:10;;;;;;;7.80;1.80;;;19.70;99.90;;;;;;5023814;28;20190;-77
2022/04/12 10:57:40;;;;;;;5.30;1.88;;;19.70;99.90;;;;;;5033124;28;20641;-77
2022/04/12 11:00:13;;;;;;;4.50;1.67;;;19.70;99.90;;;;;;5032776;28;20632;-76
2022/04/12 11:02:45;;;;;;;6.93;1.85;;;19.60;99.90;;;;;;5030135;28;20196;-76
2022/04/12 11:06:05;;;;;;;9.70;1.80;;;19.60;99.90;;;;;;5035351;28;20211;-77
2022/04/12 11:08:51;;;;;;;7.15;1.60;;;19.60;99.90;;;;;;5027455;28;20193;-77
2022/04/12 11:11:43;;;;;;;7.40;1.70;;;19.60;99.90;;;;;;5029412;28;20642;-76
2022/04/12 11:14:28;;;;;;;4.72;1.73;;;19.50;99.90;;;;;;5035310;28;20190;-76
2022/04/12 11:17:03;;;;;;;8.63;1.92;;;19.50;99.90;;;;;;5023765;28;20191;-76
2022/04/12 11:19:44;;;;;;;4.93;1.90;;;19.50;99.90;;;;;;5040724;28;20665;-76
2022/04/12 11:22:16;;;;;;;7.85;2.28;;;19.50;99.90;;;;;;5034792;28;20543;-76
2022/04/12 11:25:19;;;;;;;7.40;2.50;;;19.40;99.90;;;;;;5035331;28;20218;-79
2022/04/12 11:27:57;;;;;;;8.48;2.60;;;19.40;99.90;;;;;;5029221;28;20187;-78
2022/04/12 11:30:28;;;;;;;8.73;2.60;;;19.30;99.90;;;;;;5035026;28;20594;-76
2022/04/12 11:33:00;;;;;;;7.47;2.60;;;19.20;99.90;;;;;;5036781;28;20265;-78
2022/04/12 11:35:32;;;;;;;9.15;2.70;;;19.20;99.90;;;;;;5027718;28;20199;-78
2022/04/12 11:38:10;;;;;;;8.93;2.63;;;19.20;99.90;;;;;;5033954;28;20182;-77
2022/04/12 11:40:47;;;;;;;10.70;2.38;;;19.20;99.90;;;;;;5039312;28;20197;-78
2022/04/12 11:43:25;;;;;;;8.35;2.50;;;19.10;99.90;;;;;;5019732;28;20187;-78
2022/04/12 11:45:58;;;;;;;9.02;2.40;;;19.10;99.90;;;;;;5038448;28;20232;-77
2022/04/12 11:48:32;;;;;;;4.45;1.98;;;19.10;99.90;;;;;;5025896;28;20193;-78
2022/04/12 11:51:09;;;;;;;8.27;2.40;;;18.90;99.90;;;;;;5030554;28;20596;-79
2022/04/12 11:53:50;;;;;;;5.57;2.15;;;18.90;99.90;;;;;;5027527;28;20197;-78
2022/04/12 11:56:22;;;;;;;7.15;2.30;;;18.90;99.90;;;;;;5040679;28;20189;-79
2022/04/12 11:58:53;;;;;;;13.93;3.20;;;18.90;99.90;;;;;;5037327;28;20191;-79
2022/04/12 12:01:33;;;;;;;13.60;2.75;;;18.80;99.90;;;;;;5038305;28;20194;-77
2022/04/12 12:04:10;;;;;;;9.60;2.47;;;18.80;99.90;;;;;;5031560;28;20191;-78
2022/04/12 12:06:56;;;;;;;13.02;2.65;;;18.80;99.90;;;;;;5037566;28;20225;-77
2022/04/12 12:09:26;;;;;;;5.93;2.45;;;18.70;99.90;;;;;;5041006;28;20221;-77
2022/04/12 12:12:00;;;;;;;7.55;2.63;;;18.70;99.90;;;;;;5037921;28;20186;-77
2022/04/12 12:14:37;;;;;;;8.40;2.75;;;18.70;99.90;;;;;;5040725;28;20188;-78
2022/04/12 12:17:10;;;;;;;8.98;2.60;;;18.60;99.90;;;;;;5027223;28;20188;-77
2022/04/12 12:19:41;;;;;;;9.68;2.50;;;18.60;99.90;;;;;;5037247;28;20189;-77
2022/04/12 12:22:14;;;;;;;7.53;3.00;;;18.60;99.90;;;;;;5033609;28;20191;-78
2022/04/12 12:24:55;;;;;;;8.82;2.50;;;18.50;99.90;;;;;;5037317;28;20633;-77
2022/04/12 12:27:35;;;;;;;8.23;2.33;;;18.50;99.90;;;;;;5029609;28;20209;-77
2022/04/12 12:30:08;;;;;;;6.15;2.50;;;18.50;99.90;;;;;;5036694;28;20235;-78
2022/04/12 12:32:39;;;;;;;9.93;2.67;;;18.50;99.90;;;;;;5039337;28;20651;-78
2022/04/12 12:35:15;;;;;;;13.25;2.75;;;18.40;99.90;;;;;;5023225;28;20206;-78
2022/04/12 12:37:47;;;;;;;5.55;2.20;;;18.40;99.90;;;;;;5022525;28;20253;-79
2022/04/12 12:40:22;;;;;;;10.82;2.70;;;18.40;99.90;;;;;;5027217;28;20185;-78
2022/04/12 12:42:56;;;;;;;11.82;2.28;;;18.40;99.90;;;;;;5031483;28;20183;-78
2022/04/12 12:45:29;;;;;;;6.10;2.28;;;18.30;99.90;;;;;;5026553;28;20205;-78
2022/04/12 12:48:00;;;;;;;8.63;2.50;;;18.30;99.90;;;;;;5023936;28;20199;-78
2022/04/12 12:50:31;;;;;;;7.18;2.13;;;18.30;99.90;;;;;;5027842;28;20225;-78
2022/04/12 12:53:03;;;;;;;9.40;3.13;;;18.30;99.90;;;;;;5026644;28;20229;-78
2022/04/12 12:55:35;;;;;;;6.72;2.33;;;18.20;99.90;;;;;;5030478;28;20626;-78
2022/04/12 12:58:13;;;;;;;9.13;2.45;;;18.20;99.90;;;;;;5032364;28;20201;-78
2022/04/12 13:00:44;;;;;;;8.05;2.40;;;18.20;99.90;;;;;;5031569;28;20265;-78
2022/04/12 13:03:16;;;;;;;10.32;2.72;;;18.20;99.90;;;;;;5029025;28;20664;-78
2022/04/12 13:06:05;;;;;;;9.30;2.38;;;18.20;99.90;;;;;;5029876;28;20206;-77
2022/04/12 13:08:39;;;;;;;6.82;2.40;;;18.10;99.90;;;;;;5028568;28;20227;-77
2022/04/12 13:11:12;;;;;;;6.38;2.33;;;18.10;99.90;;;;;;5032864;28;20192;-77
2022/04/12 13:13:45;;;;;;;11.95;3.00;;;18.10;99.90;;;;;;5031697;28;20190;-77
2022/04/12 13:16:19;;;;;;;7.88;3.03;;;18.10;99.90;;;;;;5026252;28;20191;-77